• 11 / 0
  • 37
  • 1964
Active Status Co-op
Check Drive Time
See how long it takes to get to work. Change


Spacious Fulll 1 Br Facing Front. Custom Kitchen And Bath With Granite Counter Tops And Stainless Steel Appliances. Gerard Towers Offers A 24 Hr Doorman, Seasonal Pool,Fitness Center And Immediate Valet Parking. Steps To Austin Street Shopping Express Transportation And The L.I.R.R. This Is A Cat Friendly Building.

Address: 70-25 Yellowstone Blvd
State: NY
City: Forest Hills
County: Queens
Zip Code: 11375
MLS#: 3127364
MLS Area:
Taxes: 0.00 $0

Price History

Date Price Event Change MLS#:
5/21/2019 $499,999 List Price -25.93% 3109715
5/16/2019 $675,000 List Price -8.04% 3122213
5/16/2019 $734,000 List Price 83.96% 3028850
5/16/2019 $399,000 List Price 3114073
5/15/2019 $399,000 List Price -0.23% 3128966
5/9/2019 $399,900 List Price 8.37% 3127364
4/9/2019 $369,000 List Price 23.41% 3117607
3/14/2019 $299,000 List Price -16.71% 3108871
2/16/2019 $359,000 List Price -7.71% 3039079
2/14/2019 $389,000 List Price 41.45% 3058063
1/17/2019 $275,000 List Price -8.33% 3094183
11/7/2018 $299,999 List Price -38.65% 3037301
11/4/2018 $489,000 List Price -34.71% 3078576
10/26/2018 $749,000 List Price 97.63% 3028850
10/20/2018 $379,000 List Price 3.84% 3060152
10/15/2018 $365,000 List Price -2.67% 3049261
10/13/2018 $375,000 List Price -6.02% 3060152
10/3/2018 $399,000 List Price -47.84% 3058063
9/30/2018 $765,000 List Price -9.89% 3028850
9/29/2018 $849,000 List Price 132.6% 3058247
9/27/2018 $365,000 List Price 19.67% 3039079
9/24/2018 $305,000 List Price -23.56% 3037301
9/22/2018 $399,000 List Price -25.97% 3060152
9/19/2018 $539,000 List Price -40.04% 3044708
9/14/2018 $899,000 List Price 181.82% 3002069
9/8/2018 $319,000 List Price -8.6% 3061337
9/5/2018 $349,000 List Price -6.93% 3022536
8/23/2018 $375,000 List Price 19.05% 3039079
8/22/2018 $315,000 List Price -65.98% 3037301
8/20/2018 $926,000 List Price 126.41% 3002069
8/17/2018 $409,000 List Price 13.61% 3058063
8/11/2018 $360,000 List Price 10.77% 3022536
7/27/2018 $325,000 List Price -16.45% 3037301
7/21/2018 $389,000 List Price 5.14% 3039079
7/18/2018 $370,000 List Price -7.5% 3049261
7/5/2018 $399,999 List Price -27.14% 3045674
7/2/2018 $549,000 List Price -41.53% 3044708
6/30/2018 $938,888 List Price 34.32% 3002069
6/23/2018 $699,000 List Price 75.19% 2996670
6/13/2018 $399,000 List Price -0.25% 3039079
6/1/2018 $399,999 List Price 33.78% 2965251
6/1/2018 $299,000 List Price -18.08% 3029109
5/29/2018 $365,000 List Price -61.58% 3022536
5/22/2018 $950,000 List Price 20.41% 3002069
5/10/2018 $789,000 List Price 8.23% 3028850
3/22/2018 $729,000 List Price 78.24% 2996670
3/16/2018 $409,000 List Price -0.73% 2965251
2/27/2018 $412,000 List Price 14.44% 2965251
2/25/2018 $360,000 List Price -19.82% 3007162
2/17/2018 $449,000 List Price -53.95% 2976951
2/5/2018 $975,000 List Price 39.51% 3002069
2/5/2018 $698,888 List Price 100.25% 2993896
1/23/2018 $349,000 List Price -27.74% 2998762
12/7/2017 $483,000 List Price -3.21% 2976951
12/4/2017 $499,000 List Price 24.78% 2989293
11/25/2017 $399,900 List Price -3.64% 2971138
11/18/2017 $415,000 List Price 4.01% 2965251
11/17/2017 $399,000 List Price 2889647
11/16/2017 $399,000 List Price -4.55% 2986161
10/15/2017 $418,000 List Price -14.34% 2971138
10/7/2017 $488,000 List Price 23.54% 2976951
9/13/2017 $395,000 List Price -20.84% 2970679
7/28/2017 $499,000 List Price -47.42% 2959144
7/22/2017 $949,000 List Price 321.78% 2955536
7/8/2017 $225,000 List Price -30.77% 2924804
6/7/2017 $325,000 List Price -27.62% 2920033
5/31/2017 $449,000 List Price 12.53% 2889647
2/27/2017 $399,000 List Price 2884107

Nearby Schools

Forest Hills Jewish Center Nursery School & Kdgn(Preschool-K)
Academy For Excellence Through The Arts(Preschool-3)
Forest Hills Montessori School(Preschool-6)
Our Lady Queen Of Martyrs School(Preschool-8)1
Ps 101 School In The Gardens(Preschool-6)
Ps 144 Col Jeromus Remsen(Preschool-5)
Our Lady Of Mercy School(Preschool-8)
Bnos Malka Academy(Preschool-8)
Jhs 190 Russell Sage(6-8)4
Forest Hills Montessori School(Preschool-6)
Our Lady Queen Of Martyrs School(Preschool-8)1
Ps 101 School In The Gardens(Preschool-6)
Our Lady Of Mercy School(Preschool-8)
Bnos Malka Academy(Preschool-8)
Forest Hills High School(9-12)3

Interior Details

  • Appliances:Y
  • Features:
  • Furnished:
  • Floor Type:
  • Cooling:Cac
  • Heating:Hw
  • Other Rooms:3.5

Rooms

  • Dining RoomLr/Dr

Exterior Details

  • Home Construction
  • Features:
  • Exposure:
  • Roof Type:
  • Garage Spaces:
  • Pool:No
  • Utilities:
  • Lot Description:
  • View:N

Community Details

Rental Information

  • Rental Income:$0
  • Rental Number:0
Property Information Last Updated: 6/4/2019 1:25:16 PM
Property Listed By SBNY RE



>